createdAt,value
2017-09-19T00:01:42.681Z,21.66
2017-09-19T00:04:09.228Z,21.61
2017-09-19T00:06:35.664Z,21.47
2017-09-19T00:09:02.911Z,21.35
2017-09-19T00:11:29.354Z,21.33
2017-09-19T00:13:55.840Z,21.32
2017-09-19T00:16:22.313Z,21.34
2017-09-19T00:18:48.757Z,21.36
2017-09-19T00:21:15.196Z,21.42
2017-09-19T00:23:41.732Z,21.41
2017-09-19T00:26:08.885Z,21.27
2017-09-19T00:28:35.318Z,21.18
2017-09-19T00:31:01.754Z,21.15
2017-09-19T00:33:28.290Z,21.14
2017-09-19T00:35:54.656Z,21.11
2017-09-19T00:38:21.047Z,21.11
2017-09-19T00:40:47.490Z,21.18
2017-09-19T00:43:14.645Z,21.17
2017-09-19T00:45:41.090Z,21.14
2017-09-19T00:48:07.515Z,21.05
2017-09-19T00:50:33.949Z,20.95
2017-09-19T00:53:00.486Z,20.91
2017-09-19T00:55:26.921Z,20.92
2017-09-19T00:57:53.357Z,20.93
2017-09-19T01:00:20.608Z,20.97
2017-09-19T01:02:47.148Z,21.01
2017-09-19T01:05:13.582Z,20.93
2017-09-19T01:07:40.017Z,20.89
2017-09-19T01:10:06.457Z,20.81
2017-09-19T01:12:32.887Z,20.69
2017-09-19T01:14:59.322Z,20.66
2017-09-19T01:17:26.474Z,20.65
2017-09-19T01:19:52.909Z,20.64
2017-09-19T01:22:19.295Z,20.64
2017-09-19T01:24:45.727Z,20.61
2017-09-19T01:27:12.201Z,20.60
2017-09-19T01:29:38.650Z,20.73
2017-09-19T01:32:05.083Z,20.85
2017-09-19T01:34:32.245Z,20.87
2017-09-19T01:36:58.671Z,20.91
2017-09-19T01:39:25.065Z,20.88
2017-09-19T01:41:51.536Z,20.87
2017-09-19T01:44:18.077Z,20.82
2017-09-19T01:46:44.519Z,20.73
2017-09-19T01:49:10.951Z,20.68
2017-09-19T01:51:38.201Z,20.67
2017-09-19T01:54:04.722Z,20.64
2017-09-19T01:56:31.275Z,20.65
2017-09-19T01:58:57.710Z,20.71
2017-09-19T02:01:24.145Z,20.67
2017-09-19T02:03:50.682Z,20.63
2017-09-19T02:06:17.117Z,20.53
2017-09-19T02:08:44.326Z,20.50
2017-09-19T02:11:10.806Z,20.59
2017-09-19T02:13:37.343Z,20.61
2017-09-19T02:16:03.727Z,20.61
2017-09-19T02:18:30.197Z,20.47
2017-09-19T02:20:56.649Z,20.26
2017-09-19T02:23:23.186Z,20.20
2017-09-19T02:25:50.326Z,20.31
2017-09-19T02:28:16.769Z,20.37
2017-09-19T02:30:43.221Z,20.34
2017-09-19T02:33:09.748Z,20.27
2017-09-19T02:35:36.170Z,20.29
2017-09-19T02:38:02.616Z,20.29
2017-09-19T02:40:29.152Z,20.27
2017-09-19T02:42:56.303Z,20.21
2017-09-19T02:45:22.741Z,20.14
2017-09-19T02:47:49.175Z,20.06
2017-09-19T02:50:15.610Z,20.06
2017-09-19T02:52:42.148Z,20.01
2017-09-19T02:55:08.584Z,19.96
2017-09-19T02:57:35.104Z,19.95
2017-09-19T03:00:02.270Z,19.99
2017-09-19T03:02:28.705Z,19.98
2017-09-19T03:04:55.140Z,19.95
2017-09-19T03:07:21.574Z,19.93
2017-09-19T03:09:48.009Z,19.95
2017-09-19T03:12:14.446Z,19.98
2017-09-19T03:14:40.879Z,19.95
2017-09-19T03:17:08.120Z,19.83
2017-09-19T03:19:34.567Z,19.74
2017-09-19T03:22:01.105Z,19.63
2017-09-19T03:24:27.643Z,19.59
2017-09-19T03:26:54.078Z,19.52
2017-09-19T03:29:20.512Z,19.59
2017-09-19T03:31:46.947Z,19.67
2017-09-19T03:34:14.098Z,19.67
2017-09-19T03:36:40.462Z,19.73
2017-09-19T03:39:06.956Z,19.74
2017-09-19T03:41:33.397Z,19.75
2017-09-19T03:43:59.940Z,19.63
2017-09-19T03:46:26.375Z,19.53
2017-09-19T03:48:52.810Z,19.56
2017-09-19T03:51:20.064Z,19.60
2017-09-19T03:53:46.550Z,19.67
2017-09-19T03:56:13.042Z,19.73
2017-09-19T03:58:39.471Z,19.69
2017-09-19T04:01:05.906Z,19.52
2017-09-19T04:03:32.444Z,19.45
2017-09-19T04:05:58.879Z,19.37
2017-09-19T04:08:26.030Z,19.42
2017-09-19T04:10:52.434Z,19.52
2017-09-19T04:13:19.003Z,19.49
2017-09-19T04:15:45.438Z,19.45
2017-09-19T04:18:11.873Z,19.50
2017-09-19T04:20:38.308Z,19.64
2017-09-19T04:23:04.845Z,19.77
2017-09-19T04:25:31.998Z,19.87
2017-09-19T04:27:58.431Z,19.91
2017-09-19T04:30:24.867Z,19.92
2017-09-19T04:32:51.506Z,19.95
2017-09-19T04:35:18.035Z,19.95
2017-09-19T04:37:44.513Z,19.96
2017-09-19T04:40:10.995Z,20.02
2017-09-19T04:42:38.168Z,20.05
2017-09-19T04:45:04.557Z,20.10
2017-09-19T04:47:31.040Z,20.11
2017-09-19T04:49:57.472Z,20.14
2017-09-19T04:52:23.907Z,20.16
2017-09-19T04:54:50.342Z,20.19
2017-09-19T04:57:16.777Z,20.27
2017-09-19T04:59:43.911Z,20.33
2017-09-19T05:02:10.389Z,20.43
2017-09-19T05:04:36.900Z,20.52
2017-09-19T05:07:03.338Z,20.63
2017-09-19T05:09:29.731Z,20.76
2017-09-19T05:11:56.200Z,20.82
2017-09-19T05:14:22.746Z,20.88
2017-09-19T05:16:49.690Z,20.97
2017-09-19T05:19:16.112Z,21.08
2017-09-19T05:21:42.560Z,21.22
2017-09-19T05:24:09.302Z,21.28
2017-09-19T05:26:35.794Z,21.37
2017-09-19T05:29:02.276Z,21.47
2017-09-19T05:31:28.709Z,21.56
2017-09-19T05:33:55.433Z,21.65
2017-09-19T05:36:21.875Z,21.72
2017-09-19T05:38:48.327Z,21.82
2017-09-19T05:41:14.860Z,21.90
2017-09-19T05:43:41.396Z,22.03
2017-09-19T05:46:08.035Z,22.14
2017-09-19T05:48:34.470Z,22.19
2017-09-19T05:51:00.905Z,22.29
2017-09-19T05:53:27.652Z,22.42
2017-09-19T05:55:54.081Z,22.51
2017-09-19T05:58:20.488Z,22.58
2017-09-19T06:00:48.181Z,22.68
2017-09-19T06:03:14.718Z,22.77
2017-09-19T06:05:41.255Z,22.86
2017-09-19T06:08:07.691Z,22.94
2017-09-19T06:10:34.125Z,23.01
2017-09-19T06:13:00.968Z,23.16
2017-09-19T06:15:27.404Z,23.24
2017-09-19T06:17:53.839Z,23.39
2017-09-19T06:20:20.230Z,23.54
2017-09-19T06:22:46.711Z,23.61
2017-09-19T06:25:13.246Z,23.78
2017-09-19T06:27:39.681Z,23.85
2017-09-19T06:30:06.116Z,23.89
2017-09-19T06:32:32.552Z,23.96
2017-09-19T06:34:58.987Z,24.11
2017-09-19T06:37:25.523Z,24.30
2017-09-19T06:39:51.958Z,24.43
2017-09-19T06:42:18.598Z,24.54
2017-09-19T06:44:45.340Z,24.64
2017-09-19T06:47:11.736Z,24.72
2017-09-19T06:49:38.211Z,24.75
2017-09-19T06:52:04.800Z,24.79
2017-09-19T06:54:31.285Z,24.83
2017-09-19T06:56:57.723Z,24.80
2017-09-19T06:59:24.565Z,24.90
2017-09-19T07:01:50.999Z,25.00
2017-09-19T07:04:17.539Z,25.13
2017-09-19T07:06:44.179Z,25.21
2017-09-19T07:09:10.611Z,25.23
2017-09-19T07:11:37.045Z,25.32
2017-09-19T07:14:03.618Z,25.39
2017-09-19T07:16:30.327Z,25.48
2017-09-19T07:18:56.761Z,25.57
2017-09-19T07:21:23.195Z,25.68
2017-09-19T07:23:50.072Z,25.74
2017-09-19T07:26:16.580Z,25.83
2017-09-19T07:28:43.116Z,26.04
2017-09-19T07:31:09.551Z,26.12
2017-09-19T07:33:36.082Z,26.19
2017-09-19T07:36:02.472Z,26.31
2017-09-19T07:38:29.040Z,26.44
2017-09-19T07:40:55.440Z,26.51
2017-09-19T07:43:21.927Z,26.66
2017-09-19T07:45:48.364Z,26.79
2017-09-19T07:48:14.755Z,26.89
2017-09-19T07:50:41.233Z,27.06
2017-09-19T07:53:08.081Z,27.14
2017-09-19T07:55:34.821Z,27.25
2017-09-19T07:58:01.715Z,27.41
2017-09-19T08:00:28.611Z,27.55
2017-09-19T08:02:55.147Z,27.65
2017-09-19T08:05:21.904Z,27.71
2017-09-19T08:07:48.531Z,27.75
2017-09-19T08:10:15.119Z,27.83
2017-09-19T08:12:41.619Z,27.89
2017-09-19T08:15:08.449Z,27.95
2017-09-19T08:17:35.177Z,28.08
2017-09-19T08:20:01.737Z,28.17
2017-09-19T08:22:28.471Z,28.16
2017-09-19T08:24:55.216Z,28.25
2017-09-19T08:27:21.861Z,28.43
2017-09-19T08:29:48.697Z,28.45
2017-09-19T08:32:15.239Z,28.56
2017-09-19T08:34:42.796Z,28.53
2017-09-19T08:37:09.272Z,28.66
2017-09-19T08:39:36.090Z,28.76
2017-09-19T08:42:02.613Z,28.87
2017-09-19T08:44:29.150Z,28.70
2017-09-19T08:46:55.586Z,28.48
2017-09-19T08:49:22.019Z,28.67
2017-09-19T08:51:48.456Z,28.62
2017-09-19T08:54:15.197Z,28.84
2017-09-19T08:56:41.642Z,28.99
2017-09-19T08:59:08.027Z,28.94
2017-09-19T09:01:34.401Z,29.13
2017-09-19T09:04:00.937Z,29.19
2017-09-19T09:06:27.371Z,29.17
2017-09-19T09:08:53.806Z,29.36
2017-09-19T09:11:20.241Z,29.60
2017-09-19T09:13:46.734Z,29.70
2017-09-19T09:16:13.316Z,29.81
2017-09-19T09:18:39.700Z,29.99
2017-09-19T09:21:06.287Z,30.02
2017-09-19T09:23:32.932Z,29.94
2017-09-19T09:25:59.572Z,29.99
2017-09-19T09:28:26.098Z,30.07
2017-09-19T09:30:53.256Z,30.22
2017-09-19T09:33:19.748Z,30.29
2017-09-19T09:35:46.231Z,30.20
2017-09-19T09:38:12.664Z,30.38
2017-09-19T09:40:39.188Z,30.34
2017-09-19T09:43:05.691Z,30.42
2017-09-19T09:45:32.173Z,30.60
2017-09-19T09:47:58.607Z,30.31
2017-09-19T09:50:25.043Z,30.44
2017-09-19T09:52:51.535Z,30.40
2017-09-19T09:55:18.388Z,30.49
2017-09-19T09:57:45.066Z,30.68
2017-09-19T10:00:11.882Z,30.76
2017-09-19T10:02:38.960Z,30.73
2017-09-19T10:05:05.907Z,30.91
2017-09-19T10:07:32.750Z,31.01
2017-09-19T10:09:59.258Z,30.95
2017-09-19T10:12:25.675Z,31.01
2017-09-19T10:14:52.517Z,31.14
2017-09-19T10:17:19.001Z,31.23
2017-09-19T10:19:45.652Z,31.40
2017-09-19T10:22:12.281Z,31.47
2017-09-19T10:24:38.716Z,31.45
2017-09-19T10:27:05.151Z,31.41
2017-09-19T10:29:31.547Z,31.33
2017-09-19T10:31:58.017Z,31.33
2017-09-19T10:34:24.762Z,31.47
2017-09-19T10:36:51.148Z,31.51
2017-09-19T10:39:17.621Z,31.66
2017-09-19T10:41:44.066Z,31.74
2017-09-19T10:44:10.604Z,31.89
2017-09-19T10:46:37.039Z,31.99
2017-09-19T10:49:03.475Z,32.22
2017-09-19T10:51:30.113Z,32.35
2017-09-19T10:53:56.653Z,32.45
2017-09-19T10:56:23.087Z,32.37
2017-09-19T10:58:49.520Z,32.59
2017-09-19T11:01:15.957Z,32.72
2017-09-19T11:03:42.390Z,32.80
2017-09-19T11:06:08.830Z,32.30
2017-09-19T11:11:06.815Z,32.52
2017-09-19T11:13:34.075Z,33.03
2017-09-19T11:16:00.504Z,33.65
2017-09-19T11:18:26.939Z,34.23
2017-09-19T11:20:53.377Z,34.76
2017-09-19T11:23:19.918Z,35.15
2017-09-19T11:25:46.512Z,35.82
2017-09-19T11:28:13.089Z,36.15
2017-09-19T11:30:40.143Z,36.40
2017-09-19T11:33:06.582Z,36.85
2017-09-19T11:35:33.317Z,37.22
2017-09-19T11:37:59.958Z,37.12
2017-09-19T11:40:26.801Z,37.53
2017-09-19T11:42:53.702Z,38.01
2017-09-19T11:45:20.161Z,38.11
2017-09-19T11:47:46.821Z,38.16
2017-09-19T11:50:13.365Z,38.36
2017-09-19T11:52:40.264Z,38.44
2017-09-19T11:55:07.035Z,38.97
2017-09-19T11:57:33.477Z,39.57
2017-09-19T11:59:59.999Z,39.60
2017-09-19T12:02:27.274Z,39.57
2017-09-19T12:04:53.628Z,39.64
2017-09-19T12:07:20.245Z,39.44
2017-09-19T12:09:46.722Z,39.72
2017-09-19T12:12:13.629Z,39.78
2017-09-19T12:14:40.267Z,40.26
2017-09-19T12:17:06.917Z,40.83
2017-09-19T12:19:33.341Z,41.17
2017-09-19T12:21:59.879Z,41.29
2017-09-19T12:24:26.733Z,41.30
2017-09-19T12:26:53.158Z,41.20
2017-09-19T12:29:20.269Z,41.60
2017-09-19T12:31:46.901Z,41.89
2017-09-19T12:34:13.692Z,41.73
2017-09-19T12:36:40.322Z,41.57
2017-09-19T12:39:06.765Z,41.46
2017-09-19T12:41:33.202Z,41.71
2017-09-19T12:43:59.695Z,41.65
2017-09-19T12:46:26.169Z,41.70
2017-09-19T12:48:52.713Z,41.93
2017-09-19T12:51:19.251Z,42.27
2017-09-19T12:53:45.890Z,42.71
2017-09-19T12:56:12.425Z,42.65
2017-09-19T12:58:38.862Z,42.57
2017-09-19T13:01:05.297Z,41.73
2017-09-19T13:03:31.882Z,41.17
2017-09-19T13:05:58.693Z,41.81
2017-09-19T13:08:25.318Z,42.05
2017-09-19T13:10:51.975Z,41.64
2017-09-19T13:13:19.077Z,41.58
2017-09-19T13:15:45.804Z,41.88
2017-09-19T13:18:12.797Z,42.51
2017-09-19T13:20:39.751Z,42.46
2017-09-19T13:23:06.896Z,42.92
2017-09-19T13:25:33.332Z,43.24
2017-09-19T13:28:00.484Z,42.99
2017-09-19T13:30:27.020Z,42.53
2017-09-19T13:32:53.557Z,41.75
2017-09-19T13:35:20.151Z,40.64
2017-09-19T13:37:46.588Z,39.81
2017-09-19T13:40:13.066Z,39.17
2017-09-19T13:42:39.606Z,39.21
2017-09-19T13:45:06.603Z,39.11
2017-09-19T13:47:33.078Z,39.37
2017-09-19T13:49:59.799Z,39.06
2017-09-19T13:52:26.221Z,38.47
2017-09-19T13:54:52.782Z,38.13
2017-09-19T13:57:19.226Z,37.81
2017-09-19T13:59:45.621Z,37.23
2017-09-19T14:02:12.621Z,36.68
2017-09-19T14:04:39.157Z,36.14
2017-09-19T14:07:05.591Z,35.87
2017-09-19T14:09:32.744Z,36.48
2017-09-19T14:11:59.161Z,37.34
2017-09-19T14:14:25.708Z,37.95
2017-09-19T14:16:52.159Z,38.75
2017-09-19T14:19:19.404Z,38.98
2017-09-19T14:21:46.200Z,39.28
2017-09-19T14:24:12.683Z,39.32
2017-09-19T14:26:39.120Z,39.43
2017-09-19T14:29:05.862Z,39.21
2017-09-19T14:31:32.294Z,38.75
2017-09-19T14:33:58.825Z,38.65
2017-09-19T14:36:25.582Z,38.39
2017-09-19T14:38:52.419Z,38.37
2017-09-19T14:41:19.471Z,38.42
2017-09-19T14:43:46.108Z,38.21
2017-09-19T14:46:12.685Z,37.86
2017-09-19T14:48:39.636Z,37.53
2017-09-19T14:51:06.027Z,37.24
2017-09-19T14:53:32.565Z,37.42
2017-09-19T14:55:58.999Z,37.42
2017-09-19T14:58:25.434Z,36.96
2017-09-19T15:00:51.870Z,36.52
2017-09-19T15:03:18.512Z,36.27
2017-09-19T15:05:45.046Z,35.86
2017-09-19T15:08:11.482Z,35.39
2017-09-19T15:10:37.898Z,35.02
2017-09-19T15:13:04.453Z,34.77
2017-09-19T15:15:30.893Z,34.60
2017-09-19T15:17:57.323Z,34.31
2017-09-19T15:20:23.758Z,34.03
2017-09-19T15:22:50.296Z,33.81
2017-09-19T15:25:16.834Z,33.60
2017-09-19T15:27:43.271Z,33.51
2017-09-19T15:30:09.654Z,33.42
2017-09-19T15:32:36.139Z,33.32
2017-09-19T15:35:02.556Z,33.20
2017-09-19T15:37:28.999Z,33.10
2017-09-19T15:39:55.442Z,33.01
2017-09-19T15:42:21.866Z,32.89
2017-09-19T15:44:48.331Z,32.79
2017-09-19T15:47:14.749Z,32.70
2017-09-19T15:49:41.184Z,32.58
2017-09-19T15:52:07.620Z,32.48
2017-09-19T15:54:34.154Z,32.42
2017-09-19T15:57:00.589Z,32.28
2017-09-19T15:59:27.042Z,32.16
2017-09-19T16:01:53.616Z,32.04
2017-09-19T16:04:20.099Z,31.99
2017-09-19T16:06:46.533Z,31.85
2017-09-19T16:09:12.969Z,31.69
2017-09-19T16:11:39.403Z,31.66
2017-09-19T16:14:05.941Z,31.60
2017-09-19T16:16:32.376Z,31.49
2017-09-19T16:18:58.810Z,31.41
2017-09-19T16:21:25.963Z,31.42
2017-09-19T16:23:52.502Z,31.31
2017-09-19T16:26:18.935Z,31.22
2017-09-19T16:28:45.370Z,31.13
2017-09-19T16:31:11.805Z,31.06
2017-09-19T16:33:38.241Z,30.98
2017-09-19T16:36:04.674Z,30.92
2017-09-19T16:38:31.930Z,30.79
2017-09-19T16:40:58.296Z,30.70
2017-09-19T16:43:24.790Z,30.60
2017-09-19T16:45:51.235Z,30.57
2017-09-19T16:48:17.619Z,30.49
2017-09-19T16:50:44.001Z,30.42
2017-09-19T16:53:10.538Z,30.38
2017-09-19T16:55:37.645Z,30.27
2017-09-19T16:58:04.123Z,30.24
2017-09-19T17:00:30.560Z,30.17
2017-09-19T17:02:57.098Z,30.00
2017-09-19T17:05:23.533Z,30.02
2017-09-19T17:07:49.966Z,29.92
2017-09-19T17:10:16.402Z,29.86
2017-09-19T17:12:43.607Z,29.82
2017-09-19T17:15:10.091Z,29.71
2017-09-19T17:17:36.526Z,29.65
2017-09-19T17:20:02.959Z,29.57
2017-09-19T17:22:29.394Z,29.49
2017-09-19T17:24:55.830Z,29.42
2017-09-19T17:27:22.264Z,29.29
2017-09-19T17:29:49.406Z,29.19
2017-09-19T17:32:15.851Z,29.23
2017-09-19T17:34:42.287Z,29.25
2017-09-19T17:37:08.721Z,29.23
2017-09-19T17:39:35.157Z,29.23
2017-09-19T17:42:01.591Z,29.22
2017-09-19T17:44:28.129Z,29.17
2017-09-19T17:46:55.280Z,29.13
2017-09-19T17:49:21.716Z,29.12
2017-09-19T17:51:48.256Z,29.13
2017-09-19T17:54:14.790Z,29.09
2017-09-19T17:56:41.224Z,29.09
2017-09-19T17:59:07.611Z,29.08
2017-09-19T18:01:33.993Z,29.03
2017-09-19T18:04:01.349Z,29.02
2017-09-19T18:06:27.778Z,29.00
2017-09-19T18:08:54.219Z,28.99
2017-09-19T18:11:20.703Z,28.95
2017-09-19T18:13:47.191Z,28.93
2017-09-19T18:16:13.575Z,28.88
2017-09-19T18:18:39.958Z,28.81
2017-09-19T18:21:07.212Z,28.74
2017-09-19T18:23:33.754Z,28.69
2017-09-19T18:26:00.185Z,28.65
2017-09-19T18:28:26.721Z,28.56
2017-09-19T18:30:53.158Z,28.48
2017-09-19T18:33:19.647Z,28.40
2017-09-19T18:35:46.089Z,28.31
2017-09-19T18:38:13.280Z,28.27
2017-09-19T18:40:39.717Z,28.15
2017-09-19T18:43:06.150Z,28.11
2017-09-19T18:45:32.585Z,28.06
2017-09-19T18:47:59.020Z,28.01
2017-09-19T18:50:25.454Z,27.93
2017-09-19T18:52:51.992Z,27.89
2017-09-19T18:55:19.044Z,27.84
2017-09-19T18:57:45.476Z,27.80
2017-09-19T19:00:11.913Z,27.75
2017-09-19T19:02:38.448Z,27.69
2017-09-19T19:05:04.986Z,27.66
2017-09-19T19:07:31.421Z,27.58
2017-09-19T19:09:57.857Z,27.55
2017-09-19T19:12:25.008Z,27.44
2017-09-19T19:14:51.443Z,27.33
2017-09-19T19:17:17.878Z,27.22
2017-09-19T19:19:44.312Z,27.21
2017-09-19T19:22:10.747Z,27.22
2017-09-19T19:24:37.140Z,27.23
2017-09-19T19:27:03.567Z,27.25
2017-09-19T19:29:30.768Z,27.22
2017-09-19T19:31:57.204Z,27.19
2017-09-19T19:34:23.741Z,27.16
2017-09-19T19:36:50.176Z,27.17
2017-09-19T19:39:16.610Z,27.14
2017-09-19T19:41:43.046Z,27.07
2017-09-19T19:44:09.572Z,26.91
2017-09-19T19:46:36.682Z,26.80
2017-09-19T19:49:03.173Z,26.74
2017-09-19T19:51:29.556Z,26.69
2017-09-19T19:53:55.990Z,26.66
2017-09-19T19:56:22.476Z,26.61
2017-09-19T19:58:49.039Z,26.58
2017-09-19T20:01:15.446Z,26.57
2017-09-19T20:03:42.600Z,26.57
2017-09-19T20:06:09.035Z,26.53
2017-09-19T20:08:35.469Z,26.53
2017-09-19T20:11:02.007Z,26.54
2017-09-19T20:13:28.543Z,26.52
2017-09-19T20:15:54.980Z,26.39
2017-09-19T20:18:21.519Z,26.34
2017-09-19T20:20:48.873Z,26.24
2017-09-19T20:23:15.418Z,26.13
2017-09-19T20:25:41.946Z,26.07
2017-09-19T20:28:08.381Z,26.12
2017-09-19T20:30:34.911Z,26.06
2017-09-19T20:33:01.455Z,25.94
2017-09-19T20:35:27.890Z,25.94
2017-09-19T20:37:55.041Z,25.93
2017-09-19T20:40:21.477Z,25.94
2017-09-19T20:42:48.014Z,25.89
2017-09-19T20:45:14.444Z,25.87
2017-09-19T20:47:40.986Z,25.83
2017-09-19T20:50:07.422Z,25.79
2017-09-19T20:52:33.958Z,25.79
2017-09-19T20:55:01.110Z,25.77
2017-09-19T20:57:27.547Z,25.62
2017-09-19T20:59:53.980Z,25.45
2017-09-19T21:02:20.415Z,25.46
2017-09-19T21:04:46.904Z,25.46
2017-09-19T21:07:13.387Z,25.40
2017-09-19T21:09:39.822Z,25.37
2017-09-19T21:12:07.077Z,25.39
2017-09-19T21:14:33.569Z,25.31
2017-09-19T21:17:00.049Z,25.29
2017-09-19T21:19:26.437Z,25.28
2017-09-19T21:21:52.918Z,25.24
2017-09-19T21:24:19.456Z,25.20
2017-09-19T21:26:45.891Z,25.16
2017-09-19T21:29:12.266Z,25.12
2017-09-19T21:31:38.759Z,25.01
2017-09-19T21:34:05.297Z,24.97
2017-09-19T21:36:31.733Z,25.01
2017-09-19T21:38:58.167Z,25.03
2017-09-19T21:41:24.705Z,24.98
2017-09-19T21:43:51.223Z,24.97
2017-09-19T21:46:18.394Z,25.08
2017-09-19T21:48:44.829Z,25.09
2017-09-19T21:51:11.227Z,25.16
2017-09-19T21:53:37.598Z,25.22
2017-09-19T21:56:04.032Z,25.33
2017-09-19T21:58:30.467Z,25.40
2017-09-19T22:00:56.901Z,25.46
2017-09-19T22:03:24.053Z,25.49
2017-09-19T22:05:50.519Z,25.46
2017-09-19T22:08:16.875Z,25.44
2017-09-19T22:10:43.345Z,25.39
2017-09-19T22:13:09.892Z,25.31
2017-09-19T22:15:36.330Z,25.29
2017-09-19T22:18:02.764Z,25.22
2017-09-19T22:20:29.916Z,25.10
2017-09-19T22:22:56.454Z,25.12
2017-09-19T22:25:22.877Z,25.09
2017-09-19T22:27:49.321Z,25.07
2017-09-19T22:30:15.759Z,24.95
2017-09-19T22:32:42.296Z,24.85
2017-09-19T22:35:08.728Z,24.86
2017-09-19T22:37:35.882Z,24.83
2017-09-19T22:40:02.235Z,24.76
2017-09-19T22:42:28.626Z,24.59
2017-09-19T22:44:55.084Z,24.50
2017-09-19T22:47:21.514Z,24.48
2017-09-19T22:49:47.955Z,24.50
2017-09-19T22:52:14.390Z,24.53
2017-09-19T22:54:40.830Z,24.48
2017-09-19T22:57:07.259Z,24.34
2017-09-19T22:59:33.694Z,24.31
2017-09-19T23:02:00.129Z,24.35
2017-09-19T23:04:26.666Z,24.36
2017-09-19T23:06:53.103Z,24.38
2017-09-19T23:09:19.537Z,24.38
2017-09-19T23:11:46.640Z,24.34
2017-09-19T23:14:13.123Z,24.31
2017-09-19T23:16:39.500Z,24.30
2017-09-19T23:19:05.970Z,24.27
2017-09-19T23:21:32.427Z,24.28
2017-09-19T23:23:58.959Z,24.29
2017-09-19T23:26:25.397Z,24.38
2017-09-19T23:28:52.551Z,24.49
2017-09-19T23:31:18.986Z,24.55
2017-09-19T23:33:45.524Z,24.59
2017-09-19T23:36:11.945Z,24.65
2017-09-19T23:38:38.495Z,24.70
2017-09-19T23:41:04.931Z,24.68
2017-09-19T23:43:31.469Z,24.63
2017-09-19T23:45:58.617Z,24.56
2017-09-19T23:48:25.055Z,24.56
2017-09-19T23:50:51.490Z,24.57
2017-09-19T23:53:18.027Z,24.54
2017-09-19T23:55:44.465Z,24.51
2017-09-19T23:58:10.896Z,24.53
